Time;durP1;ratioP1;P1;durP2;ratioP2;P2;SDS_P1;SDS_P2;PMS_P1;PMS_P2;Temp;Humidity;BMP_temperature;BMP_pressure;BME280_temperature;BME280_humidity;BME280_pressure;Samples;Min_cycle;Max_cycle;Signal;HPM_P1;HPM_P2
2023/07/23 00:02:08;;;;;;;10.13;4.40;;;;;;;21.96;65.73;94810.38;5095852;28;20032;-75
2023/07/23 00:04:34;;;;;;;10.77;4.85;;;;;;;22.12;65.30;94817.97;5092491;28;20479;-75
2023/07/23 00:06:59;;;;;;;6.78;3.92;;;;;;;22.22;64.59;94802.56;5066128;28;20024;-75
2023/07/23 00:09:24;;;;;;;9.20;4.60;;;;;;;21.91;66.27;94810.97;5068393;28;20051;-75
2023/07/23 00:11:51;;;;;;;8.18;4.10;;;;;;;21.96;65.29;94802.44;5091612;28;20028;-75
2023/07/23 00:14:16;;;;;;;11.05;4.93;;;;;;;22.05;65.54;94812.66;5094194;28;20100;-75
2023/07/23 00:16:42;;;;;;;10.18;4.35;;;;;;;21.91;65.45;94818.09;5101153;28;20027;-75
2023/07/23 00:19:08;;;;;;;7.10;4.47;;;;;;;22.02;65.92;94825.47;5092599;28;20097;-75
2023/07/23 00:21:34;;;;;;;10.25;4.38;;;;;;;22.10;64.95;94822.66;5083469;28;20554;-75
2023/07/23 00:23:59;;;;;;;10.30;3.95;;;;;;;21.97;65.26;94822.59;5073159;28;20032;-75
2023/07/23 00:26:25;;;;;;;9.60;4.35;;;;;;;21.91;65.82;94828.66;5055170;28;20040;-75
2023/07/23 00:28:50;;;;;;;8.35;4.07;;;;;;;21.80;66.03;94817.63;5089737;28;20464;-75
2023/07/23 00:31:15;;;;;;;7.57;4.05;;;;;;;21.70;66.52;94819.81;5096823;28;20044;-75
2023/07/23 00:33:41;;;;;;;9.63;4.60;;;;;;;21.71;66.15;94832.03;5091684;28;20036;-75
2023/07/23 00:36:07;;;;;;;7.70;3.92;;;;;;;21.33;68.00;94816.50;5098880;28;20494;-75
2023/07/23 00:38:33;;;;;;;7.43;4.10;;;;;;;21.60;67.19;94838.66;5069959;28;20044;-75
2023/07/23 00:41:01;;;;;;;11.13;4.38;;;;;;;21.52;66.65;94841.47;5095980;28;20028;-75
2023/07/23 00:43:26;;;;;;;9.57;4.70;;;;;;;21.57;66.79;94840.91;5091123;28;20035;-75
2023/07/23 00:45:52;;;;;;;10.23;3.95;;;;;;;21.37;66.68;94831.00;5093337;28;20425;-75
2023/07/23 00:48:17;;;;;;;11.13;4.40;;;;;;;21.39;67.01;94860.69;5090012;28;20032;-75
2023/07/23 00:50:45;;;;;;;9.57;3.80;;;;;;;21.49;66.26;94830.47;5078735;28;20039;-75
2023/07/23 00:53:10;;;;;;;9.63;4.25;;;;;;;21.40;66.47;94843.84;5062712;28;20028;-74
2023/07/23 00:55:36;;;;;;;7.88;4.38;;;;;;;21.43;66.92;94845.28;5092963;28;20062;-75
2023/07/23 00:58:01;;;;;;;8.15;4.70;;;;;;;21.33;66.49;94850.03;5094761;28;20032;-75
2023/07/23 01:00:27;;;;;;;7.40;4.20;;;;;;;21.46;66.67;94860.75;5090538;28;20109;-75
2023/07/23 01:02:52;;;;;;;10.05;4.25;;;;;;;21.46;66.54;94849.38;5083756;28;20398;-75
2023/07/23 01:05:18;;;;;;;8.13;4.25;;;;;;;21.36;66.75;94868.16;5079591;28;20027;-74
2023/07/23 01:07:43;;;;;;;7.22;3.80;;;;;;;21.21;66.30;94860.31;5077808;28;20056;-75
2023/07/23 01:10:09;;;;;;;11.02;3.75;;;;;;;21.29;67.11;94881.31;5052955;28;20043;-75
2023/07/23 01:12:36;;;;;;;11.57;4.15;;;;;;;21.22;67.37;94888.38;5056873;28;20028;-74
2023/07/23 01:15:04;;;;;;;8.80;4.53;;;;;;;21.14;67.17;94854.97;5039743;28;20069;-75
2023/07/23 01:17:30;;;;;;;8.15;3.65;;;;;;;21.13;67.52;94882.41;5089596;28;20134;-75
2023/07/23 01:20:05;;;;;;;9.18;4.32;;;;;;;21.22;67.60;94875.16;5068568;28;20482;-75
2023/07/23 01:22:34;;;;;;;9.50;3.90;;;;;;;21.10;68.06;94877.50;5080670;28;20043;-75
2023/07/23 01:24:59;;;;;;;9.10;3.95;;;;;;;21.22;68.37;94877.81;5072787;28;20513;-75
2023/07/23 01:27:25;;;;;;;8.68;4.10;;;;;;;21.27;68.17;94866.66;5072721;28;20020;-75
2023/07/23 01:29:50;;;;;;;8.77;4.35;;;;;;;21.29;68.36;94876.03;5089562;28;20036;-75
2023/07/23 01:32:15;;;;;;;8.07;4.38;;;;;;;21.08;68.56;94886.63;5079422;28;20471;-74
2023/07/23 01:34:41;;;;;;;11.43;4.25;;;;;;;21.15;68.55;94880.41;5110018;28;20081;-75
2023/07/23 01:37:07;;;;;;;11.90;4.88;;;;;;;21.15;68.44;94882.22;5109819;28;20032;-75
2023/07/23 01:39:32;;;;;;;7.68;4.00;;;;;;;21.09;69.03;94901.44;5077842;28;20032;-75
2023/07/23 01:41:57;;;;;;;8.45;4.03;;;;;;;21.14;69.21;94888.50;5074090;28;20066;-75
2023/07/23 01:44:23;;;;;;;9.98;4.50;;;;;;;21.14;68.71;94893.78;5096480;28;20028;-75
2023/07/23 01:46:50;;;;;;;7.18;4.22;;;;;;;21.16;69.87;94903.16;5072670;28;20054;-75
2023/07/23 01:49:15;;;;;;;10.43;4.45;;;;;;;21.11;69.64;94912.66;5108500;28;20036;-75
2023/07/23 01:51:40;;;;;;;8.60;3.97;;;;;;;21.02;70.33;94914.59;5109701;28;20101;-75
2023/07/23 01:54:06;;;;;;;13.50;4.60;;;;;;;21.09;69.85;94926.06;5108121;28;20062;-75
2023/07/23 01:56:31;;;;;;;13.13;4.53;;;;;;;20.30;73.30;94936.53;5109851;28;20023;-75
2023/07/23 01:58:57;;;;;;;10.23;3.90;;;;;;;20.66;71.62;94927.84;5103166;28;20081;-74
2023/07/23 02:01:22;;;;;;;8.02;4.13;;;;;;;20.67;71.08;94926.81;5068848;28;20041;-75
2023/07/23 02:03:48;;;;;;;12.75;4.68;;;;;;;20.57;71.48;94928.97;5092435;28;20020;-75
2023/07/23 02:06:13;;;;;;;8.27;3.90;;;;;;;20.79;70.98;94943.84;5092795;28;20054;-75
2023/07/23 02:08:39;;;;;;;10.95;4.18;;;;;;;20.78;70.93;94950.09;5104453;28;20058;-75
2023/07/23 02:11:06;;;;;;;9.90;4.32;;;;;;;20.64;70.97;94948.31;5096456;28;20088;-75
2023/07/23 02:13:31;;;;;;;8.07;4.13;;;;;;;20.71;71.21;94959.78;5095785;28;20043;-75
2023/07/23 02:15:56;;;;;;;12.23;4.55;;;;;;;20.86;70.15;94971.09;5074850;28;20055;-75
2023/07/23 02:18:22;;;;;;;9.77;4.20;;;;;;;20.88;69.97;94974.38;5097513;28;20461;-75
2023/07/23 02:20:48;;;;;;;10.40;4.25;;;;;;;20.93;69.60;94979.13;5114704;28;20485;-75
2023/07/23 02:23:15;;;;;;;8.70;4.28;;;;;;;20.78;70.33;94968.56;5087238;28;20101;-75
2023/07/23 02:25:41;;;;;;;10.38;4.20;;;;;;;20.53;71.04;94990.03;5112221;28;20125;-75
2023/07/23 02:28:08;;;;;;;7.60;4.05;;;;;;;20.54;68.97;94990.84;5092768;28;20035;-75
2023/07/23 02:30:34;;;;;;;12.27;4.60;;;;;;;20.53;68.54;94990.03;5075163;28;20036;-75
2023/07/23 02:32:59;;;;;;;11.73;3.92;;;;;;;20.59;68.72;94985.00;5075854;28;20496;-75
2023/07/23 02:35:24;;;;;;;8.95;4.43;;;;;;;20.66;69.31;94980.63;5087514;28;20025;-75
2023/07/23 02:37:50;;;;;;;12.60;4.53;;;;;;;20.59;69.69;94990.28;5091372;28;20032;-75
2023/07/23 02:40:15;;;;;;;13.73;4.75;;;;;;;20.59;69.52;94967.38;5095745;28;20638;-75
2023/07/23 02:42:41;;;;;;;13.07;4.88;;;;;;;20.84;68.93;94973.13;5092268;28;20417;-75
2023/07/23 02:45:06;;;;;;;11.45;4.20;;;;;;;20.90;69.14;94972.38;5069868;28;20028;-75
2023/07/23 02:47:32;;;;;;;10.70;4.28;;;;;;;21.01;68.48;94978.19;5071670;28;20032;-75
2023/07/23 02:49:57;;;;;;;10.55;4.40;;;;;;;21.07;68.30;94978.25;5105342;28;20409;-75
2023/07/23 02:52:26;;;;;;;13.50;4.45;;;;;;;21.12;67.24;94975.03;5112632;28;20043;-75
2023/07/23 02:54:51;;;;;;;11.68;4.70;;;;;;;21.13;66.89;94974.84;5110763;28;20466;-75
2023/07/23 02:57:17;;;;;;;13.52;5.13;;;;;;;21.08;67.65;94974.59;5092157;28;20032;-75
2023/07/23 02:59:42;;;;;;;9.43;4.88;;;;;;;21.30;67.25;94995.72;5071228;28;20032;-75
2023/07/23 03:02:08;;;;;;;11.27;4.55;;;;;;;21.17;67.88;94999.88;5072637;28;20054;-75
2023/07/23 03:04:33;;;;;;;12.75;4.57;;;;;;;21.19;67.77;94997.84;5073512;28;20407;-75
2023/07/23 03:06:58;;;;;;;11.85;4.55;;;;;;;21.26;67.66;95008.50;5073132;28;20024;-75
2023/07/23 03:09:24;;;;;;;13.35;5.28;;;;;;;21.26;67.15;95005.06;5073192;28;20063;-75
2023/07/23 03:11:49;;;;;;;10.48;5.13;;;;;;;21.27;67.25;94998.75;5086494;28;20024;-75
2023/07/23 03:14:14;;;;;;;17.20;6.00;;;;;;;21.35;66.75;95004.72;5091653;28;20036;-75
2023/07/23 03:16:40;;;;;;;11.30;5.43;;;;;;;21.24;67.48;94978.00;5093051;28;20020;-75
2023/07/23 03:19:05;;;;;;;12.57;6.07;;;;;;;21.42;67.39;94995.06;5091402;28;20032;-75
2023/07/23 03:21:31;;;;;;;11.35;5.55;;;;;;;21.46;67.25;94992.88;5091022;28;20528;-75
2023/07/23 03:23:56;;;;;;;10.90;6.43;;;;;;;21.41;67.09;95000.53;5075043;28;20085;-75
2023/07/23 03:26:22;;;;;;;15.52;6.20;;;;;;;21.31;67.66;94990.28;5074896;28;20433;-75
2023/07/23 03:28:47;;;;;;;12.48;6.88;;;;;;;21.46;67.39;94997.34;5074717;28;20031;-75
2023/07/23 03:31:12;;;;;;;12.82;7.55;;;;;;;21.57;66.47;94988.91;5091036;28;20096;-75
2023/07/23 03:33:38;;;;;;;12.98;7.57;;;;;;;21.67;66.86;94989.38;5091784;28;20466;-75
2023/07/23 03:36:03;;;;;;;12.48;7.95;;;;;;;21.68;66.75;94996.31;5091497;28;20032;-75
2023/07/23 03:38:29;;;;;;;11.02;7.15;;;;;;;21.66;66.79;94990.38;5091417;28;20418;-75
2023/07/23 03:40:55;;;;;;;10.15;7.68;;;;;;;21.84;66.20;94988.09;5091012;28;20036;-75
2023/07/23 03:43:20;;;;;;;12.35;8.50;;;;;;;21.92;66.36;94991.59;5091475;28;20024;-75
2023/07/23 03:45:46;;;;;;;9.77;7.43;;;;;;;21.90;66.10;94994.44;5091234;28;20513;-75
2023/07/23 03:48:11;;;;;;;11.82;7.70;;;;;;;21.78;66.74;94991.47;5091427;28;20404;-74
2023/07/23 03:50:36;;;;;;;12.90;7.70;;;;;;;21.90;66.79;94985.66;5091798;28;20089;-75
2023/07/23 03:53:02;;;;;;;15.77;8.57;;;;;;;22.01;65.38;95001.03;5074378;28;20036;-75
2023/07/23 03:55:27;;;;;;;10.98;7.80;;;;;;;21.73;65.95;94967.47;5091263;28;20085;-74
2023/07/23 03:57:53;;;;;;;10.88;8.25;;;;;;;21.88;66.37;94987.72;5092513;28;20062;-75
2023/07/23 04:00:18;;;;;;;9.02;6.95;;;;;;;22.05;66.59;95004.91;5091280;28;20085;-75
2023/07/23 04:02:43;;;;;;;11.77;7.57;;;;;;;22.11;66.61;95004.13;5091023;28;20039;-75
2023/07/23 04:05:09;;;;;;;12.50;7.40;;;;;;;22.10;65.70;95007.78;5092212;28;20028;-75
2023/07/23 04:07:34;;;;;;;14.02;9.23;;;;;;;22.10;66.50;94994.56;5090743;28;20047;-75
2023/07/23 04:10:00;;;;;;;11.45;7.90;;;;;;;22.16;66.76;95009.66;5090492;28;20067;-75
2023/07/23 04:12:25;;;;;;;14.15;7.93;;;;;;;22.31;65.06;95004.28;5091341;28;20028;-75
2023/07/23 04:14:51;;;;;;;12.82;8.45;;;;;;;22.51;63.07;94992.00;5090549;28;20486;-75
2023/07/23 04:17:16;;;;;;;10.43;8.18;;;;;;;22.61;63.94;94994.25;5058959;28;20043;-75
2023/07/23 04:19:42;;;;;;;13.52;9.55;;;;;;;22.85;63.80;95005.38;5070528;28;20041;-75
2023/07/23 04:22:07;;;;;;;11.25;8.38;;;;;;;23.25;62.88;95002.84;5071558;28;20025;-74
2023/07/23 04:24:32;;;;;;;10.25;7.75;;;;;;;23.55;62.50;95005.97;5079358;28;20036;-75
2023/07/23 04:26:58;;;;;;;14.80;7.78;;;;;;;23.99;60.94;95000.06;5073669;28;20508;-75
2023/07/23 04:29:23;;;;;;;10.57;7.45;;;;;;;24.31;59.46;95009.00;5073507;28;20023;-75
2023/07/23 04:31:49;;;;;;;9.35;7.60;;;;;;;24.72;58.72;94999.13;5090021;28;20036;-75
2023/07/23 04:34:14;;;;;;;14.65;7.80;;;;;;;25.10;57.13;95006.28;5090440;28;20093;-75
2023/07/23 04:36:42;;;;;;;10.23;7.55;;;;;;;25.40;56.48;95007.38;5072993;28;20028;-75
2023/07/23 04:39:07;;;;;;;10.13;7.28;;;;;;;25.80;55.29;95003.63;5091419;28;20032;-75
2023/07/23 04:41:32;;;;;;;10.13;7.63;;;;;;;26.17;54.15;95009.88;5090371;28;20043;-75
2023/07/23 04:43:58;;;;;;;11.68;7.32;;;;;;;26.65;52.79;95009.22;5091562;28;20024;-75
2023/07/23 04:46:23;;;;;;;8.35;7.15;;;;;;;27.14;51.03;95007.38;5091023;28;20386;-75
2023/07/23 04:48:49;;;;;;;11.73;7.38;;;;;;;27.55;49.18;95003.16;5071841;28;20107;-75
2023/07/23 04:51:14;;;;;;;9.10;7.00;;;;;;;28.00;49.01;95007.19;5089699;28;20035;-75
2023/07/23 04:53:39;;;;;;;9.38;6.93;;;;;;;28.16;47.74;95011.03;5089500;28;20020;-75
2023/07/23 04:56:05;;;;;;;12.80;7.43;;;;;;;27.98;47.50;95004.75;5089844;28;20401;-75
2023/07/23 04:58:31;;;;;;;9.27;7.25;;;;;;;27.16;49.42;95009.84;5090020;28;20523;-75
2023/07/23 05:00:58;;;;;;;10.18;7.53;;;;;;;27.33;48.58;95012.69;5090474;28;20482;-75
2023/07/23 05:03:23;;;;;;;11.65;7.88;;;;;;;26.93;48.20;95011.31;5055481;28;20028;-75
2023/07/23 05:05:49;;;;;;;10.50;7.55;;;;;;;26.88;48.87;95005.03;5072775;28;20512;-75
2023/07/23 05:08:15;;;;;;;14.98;8.50;;;;;;;26.86;48.86;95018.59;5089010;28;20055;-75
2023/07/23 05:10:41;;;;;;;12.23;8.75;;;;;;;26.52;48.63;95025.31;5069595;28;20032;-75
2023/07/23 05:13:07;;;;;;;14.50;9.20;;;;;;;26.50;49.09;95012.25;5070767;28;20415;-75
2023/07/23 05:15:33;;;;;;;15.63;9.80;;;;;;;26.41;48.89;95020.69;5054953;28;20020;-75
2023/07/23 05:17:58;;;;;;;12.02;8.55;;;;;;;26.35;48.48;95024.25;5072276;28;20065;-75
2023/07/23 05:20:23;;;;;;;11.38;8.40;;;;;;;26.23;47.60;95016.19;5090067;28;20028;-75
2023/07/23 05:22:49;;;;;;;10.70;8.93;;;;;;;26.46;48.43;95026.19;5090738;28;20407;-75
2023/07/23 05:25:14;;;;;;;12.50;8.63;;;;;;;26.44;48.27;95022.91;5069840;28;20493;-75
2023/07/23 05:27:40;;;;;;;9.90;8.75;;;;;;;26.66;47.57;95024.19;5070652;28;20033;-75
2023/07/23 05:30:06;;;;;;;12.32;9.40;;;;;;;26.66;47.64;95015.34;5083036;28;20418;-75
2023/07/23 05:32:31;;;;;;;10.07;8.73;;;;;;;26.50;47.65;94998.09;5066532;28;20052;-75
2023/07/23 05:34:57;;;;;;;10.20;9.00;;;;;;;26.54;47.17;95025.13;5052556;28;20032;-74
2023/07/23 05:37:23;;;;;;;10.98;7.90;;;;;;;26.95;46.97;95024.44;5089357;28;20032;-75
2023/07/23 05:39:49;;;;;;;9.77;8.48;;;;;;;26.65;47.82;95019.06;5055614;28;20028;-75
2023/07/23 05:42:15;;;;;;;9.55;8.55;;;;;;;26.73;48.21;95027.56;5090419;28;20034;-75
2023/07/23 05:44:40;;;;;;;10.20;9.00;;;;;;;26.72;48.03;95027.81;5091005;28;20473;-75
2023/07/23 05:47:05;;;;;;;9.68;7.93;;;;;;;26.85;47.63;95024.16;5094272;28;20409;-74
2023/07/23 05:49:31;;;;;;;9.20;8.30;;;;;;;27.07;47.35;95022.66;5076328;28;20556;-74
2023/07/23 05:51:58;;;;;;;10.90;7.95;;;;;;;27.02;46.83;95017.16;5094702;28;20043;-75
2023/07/23 05:54:24;;;;;;;11.70;8.98;;;;;;;27.20;46.47;95027.03;5092725;28;20081;-75
2023/07/23 05:56:49;;;;;;;10.93;8.05;;;;;;;27.04;46.03;95024.94;5069548;28;20111;-75
2023/07/23 05:59:15;;;;;;;11.50;8.30;;;;;;;26.93;47.24;95010.53;5084492;28;20054;-75
2023/07/23 06:01:40;;;;;;;11.00;7.85;;;;;;;27.00;46.75;95011.28;5071555;28;20028;-75
2023/07/23 06:04:06;;;;;;;10.02;8.20;;;;;;;27.36;45.56;95022.94;5073089;28;20037;-75
2023/07/23 06:06:31;;;;;;;10.15;8.75;;;;;;;27.32;46.13;95013.75;5074382;28;20043;-75
2023/07/23 06:08:56;;;;;;;10.45;8.73;;;;;;;27.28;47.40;95017.91;5056143;28;20053;-75
2023/07/23 06:11:22;;;;;;;12.57;8.27;;;;;;;27.14;46.72;95020.72;5074429;28;20468;-75
2023/07/23 06:13:47;;;;;;;11.95;8.20;;;;;;;27.36;46.58;95022.94;5093112;28;20543;-75
2023/07/23 06:16:13;;;;;;;9.45;8.48;;;;;;;27.29;46.65;95014.19;5094321;28;20486;-75
2023/07/23 06:18:39;;;;;;;12.43;8.35;;;;;;;27.35;46.89;95018.63;5076008;28;20077;-75
2023/07/23 06:21:04;;;;;;;11.60;8.30;;;;;;;27.12;48.28;95014.78;5092397;28;20107;-75
2023/07/23 06:23:31;;;;;;;10.30;8.27;;;;;;;26.46;48.88;95007.53;5093061;28;20035;-75
2023/07/23 06:25:56;;;;;;;10.70;9.00;;;;;;;26.75;48.47;94995.38;5092662;28;20482;-75
2023/07/23 06:28:22;;;;;;;10.68;8.52;;;;;;;27.04;48.46;95016.94;5093007;28;20043;-75
2023/07/23 06:30:51;;;;;;;13.77;8.82;;;;;;;27.20;48.36;95018.22;5093390;28;20036;-75
2023/07/23 06:33:16;;;;;;;14.75;9.90;;;;;;;27.29;49.44;95017.66;5099360;28;20040;-75
2023/07/23 06:35:45;;;;;;;15.55;9.35;;;;;;;27.25;48.87;95013.84;5092867;28;20028;-75
2023/07/23 06:38:10;;;;;;;12.55;9.13;;;;;;;26.71;50.71;95023.47;5092652;28;20063;-74
2023/07/23 06:40:36;;;;;;;11.95;9.77;;;;;;;26.98;49.89;95017.84;5094033;28;20017;-75
2023/07/23 06:43:01;;;;;;;13.07;9.30;;;;;;;26.99;50.18;95017.63;5092251;28;20481;-75
2023/07/23 06:45:27;;;;;;;13.32;9.75;;;;;;;27.21;49.20;95012.66;5109562;27;20035;-75
2023/07/23 06:47:52;;;;;;;14.75;8.80;;;;;;;26.95;49.95;95021.78;5092587;28;20048;-74
2023/07/23 06:50:18;;;;;;;12.75;9.48;;;;;;;27.26;48.99;95014.66;5074054;28;20017;-75
2023/07/23 06:52:44;;;;;;;13.38;9.75;;;;;;;27.07;49.39;95011.97;5072163;28;20387;-75
2023/07/23 06:55:09;;;;;;;12.80;9.10;;;;;;;27.24;49.55;95016.72;5087968;28;20034;-75
2023/07/23 06:57:34;;;;;;;12.75;8.18;;;;;;;27.25;47.74;95008.50;5091582;28;20482;-75
2023/07/23 07:00:00;;;;;;;11.45;7.50;;;;;;;27.11;47.99;94996.38;5058698;28;20036;-75
2023/07/23 07:02:25;;;;;;;10.93;7.97;;;;;;;27.26;48.08;95010.13;5092246;28;20040;-75
2023/07/23 07:04:51;;;;;;;9.02;7.55;;;;;;;27.55;47.15;95013.84;5092258;28;20032;-75
2023/07/23 07:07:16;;;;;;;12.00;7.40;;;;;;;27.69;46.81;95009.06;5093253;28;20024;-75
2023/07/23 07:09:42;;;;;;;10.02;7.40;;;;;;;27.79;46.59;95019.22;5058688;28;20451;-76
2023/07/23 07:12:08;;;;;;;12.50;8.25;;;;;;;27.89;46.23;95018.66;5091844;28;20409;-75
2023/07/23 07:14:33;;;;;;;13.45;7.63;;;;;;;28.11;46.57;95026.94;5092067;28;20485;-75
2023/07/23 07:16:58;;;;;;;9.68;6.15;;;;;;;28.05;43.70;95026.00;5091953;28;20077;-75
2023/07/23 07:19:24;;;;;;;10.43;5.70;;;;;;;27.99;42.52;95017.06;5058559;28;20039;-75
2023/07/23 07:21:50;;;;;;;7.50;5.22;;;;;;;28.21;41.76;95021.84;5074963;28;20028;-75
2023/07/23 07:24:16;;;;;;;8.02;5.47;;;;;;;28.41;41.43;95011.59;5092928;28;20035;-75
2023/07/23 07:26:42;;;;;;;9.13;5.32;;;;;;;28.69;41.23;95023.44;5074873;28;20034;-75
2023/07/23 07:29:07;;;;;;;7.28;6.07;;;;;;;28.65;40.84;95031.13;5074743;28;20024;-75
2023/07/23 07:31:33;;;;;;;10.48;5.95;;;;;;;28.47;41.07;95020.56;5075165;28;20381;-77
2023/07/23 07:33:59;;;;;;;8.40;5.72;;;;;;;28.49;39.66;95021.97;5091364;28;20540;-75
2023/07/23 07:36:24;;;;;;;8.05;5.55;;;;;;;28.53;39.90;95019.66;5092797;28;20635;-76
2023/07/23 07:38:49;;;;;;;7.50;5.40;;;;;;;28.61;39.09;95013.13;5104795;28;20036;-77
2023/07/23 07:41:15;;;;;;;11.30;6.15;;;;;;;28.74;39.37;95015.53;5106368;28;20481;-77
2023/07/23 07:43:40;;;;;;;10.50;5.95;;;;;;;28.85;39.90;95012.03;5057792;28;20429;-77
2023/07/23 07:46:08;;;;;;;8.02;5.68;;;;;;;28.90;39.38;95006.00;5090604;28;20546;-77
2023/07/23 07:48:35;;;;;;;8.20;5.63;;;;;;;28.97;39.28;95009.31;5091940;28;20043;-77
2023/07/23 07:51:02;;;;;;;10.98;5.95;;;;;;;29.07;39.47;95001.53;5091288;28;20028;-77
2023/07/23 07:53:27;;;;;;;7.95;5.60;;;;;;;29.39;39.53;95012.59;5074862;28;20044;-76
2023/07/23 07:55:53;;;;;;;7.22;5.68;;;;;;;29.55;38.48;95012.84;5074587;28;20152;-78
2023/07/23 07:58:24;;;;;;;8.13;5.22;;;;;;;29.73;37.65;95019.91;5091325;28;20036;-78
2023/07/23 08:00:52;;;;;;;9.30;5.13;;;;;;;29.71;36.11;95004.06;5091469;28;20066;-78
2023/07/23 08:03:17;;;;;;;7.82;5.13;;;;;;;29.64;36.08;94997.25;5058145;28;20040;-78
2023/07/23 08:05:43;;;;;;;8.07;4.53;;;;;;;29.40;35.87;95014.19;5074197;28;20524;-74
2023/07/23 08:08:08;;;;;;;8.35;4.93;;;;;;;29.24;36.40;95012.28;5090506;28;20048;-74
2023/07/23 08:10:34;;;;;;;9.00;4.88;;;;;;;29.24;36.55;95001.59;5057281;28;20159;-74
2023/07/23 08:13:01;;;;;;;10.95;4.60;;;;;;;29.48;35.72;95021.03;5090917;28;20451;-74
2023/07/23 08:15:27;;;;;;;7.65;4.80;;;;;;;29.83;34.83;95002.13;5092108;28;20020;-74
2023/07/23 08:17:52;;;;;;;6.38;4.55;;;;;;;29.64;35.28;95007.94;5057319;28;20551;-75
2023/07/23 08:20:18;;;;;;;8.40;5.18;;;;;;;29.67;35.04;95010.97;5089974;28;20038;-74
2023/07/23 08:22:44;;;;;;;9.02;5.35;;;;;;;29.58;35.91;95015.03;5092033;28;20044;-75
2023/07/23 08:25:10;;;;;;;7.60;5.05;;;;;;;29.63;35.32;95017.84;5090004;28;20441;-75
2023/07/23 08:27:35;;;;;;;7.15;5.22;;;;;;;29.44;35.33;95005.69;5066554;28;20032;-75
2023/07/23 08:30:01;;;;;;;5.22;4.70;;;;;;;29.48;35.19;95007.66;5053729;28;20040;-75
2023/07/23 08:32:26;;;;;;;6.28;4.78;;;;;;;29.85;35.51;95004.56;5086385;28;20028;-75
2023/07/23 08:34:52;;;;;;;8.68;5.50;;;;;;;29.63;34.96;95028.56;5067644;28;20032;-74
2023/07/23 08:37:17;;;;;;;6.38;4.68;;;;;;;29.94;36.03;95021.03;5070304;28;20055;-74
2023/07/23 08:39:43;;;;;;;9.98;4.93;;;;;;;29.82;34.61;95005.06;5073160;28;20024;-74
2023/07/23 08:42:08;;;;;;;7.30;5.70;;;;;;;29.94;35.18;95013.00;5089718;28;20036;-74
2023/07/23 08:45:11;;;;;;;8.98;5.53;;;;;;;30.10;35.38;95016.75;5090663;28;20030;-74
2023/07/23 08:47:37;;;;;;;8.18;5.28;;;;;;;30.30;34.37;95021.63;5085540;28;20446;-74
2023/07/23 08:50:03;;;;;;;6.20;4.85;;;;;;;29.87;33.70;95010.50;5090092;28;20107;-74
2023/07/23 08:52:28;;;;;;;7.38;4.95;;;;;;;29.90;33.17;95001.97;5069062;28;20521;-74
2023/07/23 08:54:54;;;;;;;6.10;4.60;;;;;;;29.90;33.49;95003.84;5053576;28;20024;-74
2023/07/23 08:57:20;;;;;;;6.82;4.78;;;;;;;29.94;33.43;94996.94;5053145;28;20044;-74
2023/07/23 08:59:45;;;;;;;8.82;5.40;;;;;;;30.42;32.93;94998.22;5069791;28;20028;-74
2023/07/23 09:02:13;;;;;;;7.00;5.03;;;;;;;30.65;33.26;95003.38;5053021;28;20029;-74
2023/07/23 09:04:41;;;;;;;7.72;5.22;;;;;;;30.56;33.24;94999.47;5069838;28;20116;-75
2023/07/23 09:07:11;;;;;;;8.15;5.13;;;;;;;30.25;32.51;94998.25;5069518;28;20029;-74
2023/07/23 09:09:36;;;;;;;8.65;4.75;;;;;;;30.12;33.14;95007.41;5053448;28;20469;-74
2023/07/23 09:12:03;;;;;;;11.48;5.07;;;;;;;30.12;33.03;95010.09;5069691;28;20032;-75
2023/07/23 09:14:29;;;;;;;8.55;4.82;;;;;;;30.44;33.36;95004.16;5070773;28;20529;-74
2023/07/23 09:16:54;;;;;;;6.78;4.90;;;;;;;30.45;34.06;95000.41;5069640;28;20028;-74
2023/07/23 09:19:24;;;;;;;8.07;5.90;;;;;;;30.57;32.57;95003.00;5052150;28;20047;-74
2023/07/23 09:21:50;;;;;;;7.50;5.50;;;;;;;30.64;32.74;95009.78;5069459;28;20112;-75
2023/07/23 09:24:15;;;;;;;7.55;5.47;;;;;;;30.78;32.96;94986.09;5069542;28;20033;-74
2023/07/23 09:26:41;;;;;;;7.65;5.55;;;;;;;30.94;31.20;95011.25;5052874;28;20486;-74
2023/07/23 09:29:08;;;;;;;6.78;5.10;;;;;;;30.71;32.70;95002.38;5052666;28;20033;-74
2023/07/23 09:31:33;;;;;;;8.32;5.28;;;;;;;30.88;32.19;94985.44;5052896;28;20421;-74
2023/07/23 09:34:00;;;;;;;6.70;4.93;;;;;;;30.97;32.78;95010.75;5052936;28;20028;-75
2023/07/23 09:36:26;;;;;;;6.45;5.30;;;;;;;30.67;31.68;95006.63;5052791;28;20558;-74
2023/07/23 09:39:05;;;;;;;8.07;5.45;;;;;;;30.79;31.93;95000.34;5052723;28;20048;-74
2023/07/23 09:41:32;;;;;;;9.75;5.57;;;;;;;30.82;31.49;94999.88;5069483;28;20502;-74
2023/07/23 09:44:15;;;;;;;8.93;6.00;;;;;;;30.73;31.90;95000.25;5070921;28;20033;-75
2023/07/23 09:46:44;;;;;;;8.73;5.35;;;;;;;30.91;31.59;95011.75;5070612;28;20407;-74
2023/07/23 09:49:10;;;;;;;8.20;5.73;;;;;;;31.12;31.28;95002.06;5052693;28;20514;-75
2023/07/23 09:51:36;;;;;;;8.93;5.25;;;;;;;30.92;31.05;94989.25;5069276;28;20056;-74
2023/07/23 09:54:03;;;;;;;7.80;5.43;;;;;;;30.68;30.09;94988.66;5069097;28;20036;-74
2023/07/23 09:56:29;;;;;;;6.85;5.38;;;;;;;30.73;30.49;94997.59;5052697;28;20036;-75
2023/07/23 09:58:54;;;;;;;9.75;6.25;;;;;;;30.83;30.96;94999.59;5052716;28;20029;-74
2023/07/23 10:01:20;;;;;;;7.78;5.20;;;;;;;30.94;30.50;95004.03;5069485;28;20107;-74
2023/07/23 10:03:49;;;;;;;10.25;6.25;;;;;;;30.87;28.94;94987.31;5070749;28;20032;-74
2023/07/23 10:06:15;;;;;;;12.95;7.28;;;;;;;30.46;30.39;94973.38;5069230;28;20032;-75
2023/07/23 10:08:42;;;;;;;10.65;6.28;;;;;;;30.80;30.17;94999.28;5052403;28;20052;-75
2023/07/23 10:11:09;;;;;;;9.85;6.57;;;;;;;30.85;28.95;95004.72;5052421;28;20158;-74
2023/07/23 10:13:35;;;;;;;9.95;5.60;;;;;;;30.56;28.96;94994.13;5070628;28;20032;-74
2023/07/23 10:16:01;;;;;;;10.20;5.90;;;;;;;30.49;29.18;94988.13;5052430;28;20040;-74
2023/07/23 10:18:28;;;;;;;8.18;5.78;;;;;;;30.61;29.23;94993.38;5069086;28;20033;-74
2023/07/23 10:20:53;;;;;;;8.43;5.60;;;;;;;30.50;29.10;94995.09;5052550;28;20077;-74
2023/07/23 10:23:21;;;;;;;10.50;5.97;;;;;;;30.61;29.48;94986.16;5052461;28;20032;-74
2023/07/23 10:25:46;;;;;;;7.45;5.72;;;;;;;30.58;29.49;94980.47;5052408;28;20025;-74
2023/07/23 10:28:21;;;;;;;8.98;6.03;;;;;;;30.77;29.43;94975.63;5070371;28;20044;-74
2023/07/23 10:30:47;;;;;;;11.88;6.10;;;;;;;30.71;29.55;94980.94;5054124;28;20028;-74
2023/07/23 10:33:12;;;;;;;11.65;5.95;;;;;;;30.72;29.89;94985.22;5072542;28;20097;-74
2023/07/23 10:35:53;;;;;;;9.18;6.07;;;;;;;30.86;30.39;94972.28;5072483;28;20032;-74
2023/07/23 10:38:25;;;;;;;8.60;6.38;;;;;;;30.82;29.22;94983.78;5073947;28;20044;-74
2023/07/23 10:40:50;;;;;;;9.23;6.40;;;;;;;30.84;29.76;94978.94;5073643;28;20032;-74
2023/07/23 10:43:16;;;;;;;9.80;5.93;;;;;;;30.67;29.91;94966.41;5055727;28;20037;-74
2023/07/23 10:46:02;;;;;;;10.02;5.65;;;;;;;30.69;30.10;94990.28;5055640;28;20033;-74
2023/07/23 10:48:42;;;;;;;9.80;6.45;;;;;;;30.60;29.71;94973.81;5071405;28;20033;-74
2023/07/23 10:51:08;;;;;;;10.77;5.90;;;;;;;30.59;30.58;94984.78;5072176;28;20218;-75
2023/07/23 10:53:37;;;;;;;12.52;6.53;;;;;;;30.80;29.94;94975.97;5073712;28;20043;-74
2023/07/23 10:56:03;;;;;;;10.00;6.60;;;;;;;30.83;29.25;94969.31;5055573;28;20028;-74
2023/07/23 10:58:28;;;;;;;8.80;6.80;;;;;;;30.73;29.31;94970.78;5055464;28;20409;-74
2023/07/23 11:00:58;;;;;;;10.50;6.97;;;;;;;30.57;29.68;94979.69;5055349;28;20039;-74
2023/07/23 11:03:24;;;;;;;9.07;6.50;;;;;;;30.75;30.12;94975.88;5072164;28;20032;-74
2023/07/23 11:05:50;;;;;;;10.07;6.70;;;;;;;30.81;29.11;94969.53;5072026;28;20020;-74
2023/07/23 11:08:29;;;;;;;10.25;6.90;;;;;;;30.90;28.80;94968.06;5055179;28;20061;-74
2023/07/23 11:11:02;;;;;;;9.63;6.95;;;;;;;30.99;29.22;94971.09;5073009;28;20406;-74
2023/07/23 11:13:31;;;;;;;10.82;7.07;;;;;;;31.05;29.42;94975.44;5071961;28;20060;-74
2023/07/23 11:15:57;;;;;;;9.98;6.97;;;;;;;31.06;29.08;94963.66;5055277;28;20026;-74
2023/07/23 11:18:23;;;;;;;12.35;7.63;;;;;;;30.86;28.58;94950.81;5071882;28;20040;-74
2023/07/23 11:20:49;;;;;;;10.70;7.10;;;;;;;30.91;28.58;94958.13;5055166;28;20028;-75
2023/07/23 11:23:16;;;;;;;11.02;7.28;;;;;;;31.01;28.31;94957.41;5055152;28;20040;-75
2023/07/23 11:25:42;;;;;;;12.00;7.28;;;;;;;31.01;28.82;94962.78;5038757;28;20089;-75